Time;durP1;ratioP1;P1;durP2;ratioP2;P2;SDS_P1;SDS_P2;PMS_P1;PMS_P2;Temp;Humidity;BMP_temperature;BMP_pressure;BME280_temperature;BME280_humidity;BME280_pressure;Samples;Min_cycle;Max_cycle;Signal;HPM_P1;HPM_P2
2023/06/24 00:02:12;;;;;;;85.22;54.65;;;20.60;75.70;;;;;;4993486;28;86432;-72
2023/06/24 00:04:38;;;;;;;85.38;54.55;;;20.60;75.80;;;;;;4999381;28;86439;-73
2023/06/24 00:07:04;;;;;;;85.18;54.95;;;20.60;76.00;;;;;;4994520;28;84602;-73
2023/06/24 00:09:30;;;;;;;85.38;54.63;;;20.60;76.00;;;;;;4999559;28;86157;-73
2023/06/24 00:11:58;;;;;;;84.97;54.58;;;20.60;76.00;;;;;;4996436;28;85416;-73
2023/06/24 00:14:24;;;;;;;85.93;54.92;;;20.60;76.30;;;;;;5002582;28;85561;-72
2023/06/24 00:16:51;;;;;;;84.80;54.67;;;20.50;76.50;;;;;;5007232;28;86496;-73
2023/06/24 00:19:20;;;;;;;84.75;54.42;;;20.50;76.40;;;;;;5002065;28;84812;-72
2023/06/24 00:21:47;;;;;;;86.30;55.35;;;20.50;76.50;;;;;;5004308;28;84844;-73
2023/06/24 00:24:12;;;;;;;84.80;54.80;;;20.40;76.60;;;;;;5002721;28;87062;-73
2023/06/24 00:26:38;;;;;;;85.18;55.03;;;20.40;76.90;;;;;;5004651;28;84279;-72
2023/06/24 00:29:03;;;;;;;84.93;54.78;;;20.40;77.20;;;;;;4999105;28;84367;-72
2023/06/24 00:31:29;;;;;;;85.60;55.22;;;20.40;77.20;;;;;;5006264;28;86718;-73
2023/06/24 00:33:54;;;;;;;86.72;54.83;;;20.30;77.10;;;;;;5002517;28;84481;-72
2023/06/24 00:36:21;;;;;;;84.90;54.92;;;20.40;78.10;;;;;;5006458;28;85292;-72
2023/06/24 00:38:48;;;;;;;86.07;54.70;;;20.30;77.40;;;;;;5001214;28;85739;-73
2023/06/24 00:41:16;;;;;;;84.90;54.55;;;20.30;77.70;;;;;;5009813;28;85052;-72
2023/06/24 00:43:41;;;;;;;86.45;54.88;;;20.30;77.90;;;;;;5005401;28;84780;-72
2023/06/24 00:46:07;;;;;;;87.07;54.67;;;20.20;77.90;;;;;;5003110;28;86819;-72
2023/06/24 00:48:33;;;;;;;84.50;54.88;;;20.20;77.90;;;;;;5005401;28;84278;-72
2023/06/24 00:50:58;;;;;;;85.30;54.65;;;20.20;77.70;;;;;;5004161;28;84874;-72
2023/06/24 00:53:24;;;;;;;84.60;54.45;;;20.20;77.90;;;;;;5005176;28;85947;-72
2023/06/24 00:55:52;;;;;;;84.50;54.60;;;20.20;78.20;;;;;;4999985;28;85335;-74
2023/06/24 00:58:20;;;;;;;84.82;54.75;;;20.20;79.00;;;;;;4993334;28;84365;-73
2023/06/24 01:00:48;;;;;;;84.57;54.65;;;20.20;78.50;;;;;;5003492;28;85072;-73
2023/06/24 01:03:13;;;;;;;85.88;55.00;;;20.20;78.50;;;;;;5001814;28;84958;-72
2023/06/24 01:05:46;;;;;;;84.13;54.78;;;20.10;78.70;;;;;;4995513;28;84876;-73
2023/06/24 01:08:15;;;;;;;85.47;54.33;;;20.10;78.50;;;;;;4993919;28;88793;-73
2023/06/24 01:10:41;;;;;;;84.97;54.92;;;20.10;79.00;;;;;;4995117;28;89122;-72
2023/06/24 01:13:07;;;;;;;84.00;54.25;;;20.10;78.80;;;;;;4999560;28;85319;-73
2023/06/24 01:15:33;;;;;;;85.25;54.85;;;20.10;79.00;;;;;;4995391;28;86315;-74
2023/06/24 01:18:21;;;;;;;84.05;54.33;;;20.10;78.90;;;;;;5000136;28;84349;-74
2023/06/24 01:21:02;;;;;;;84.80;54.95;;;20.10;78.70;;;;;;4991677;28;89850;-73
2023/06/24 01:23:46;;;;;;;84.63;54.63;;;20.10;79.10;;;;;;5000385;28;85017;-72
2023/06/24 01:26:30;;;;;;;84.05;54.28;;;20.00;79.30;;;;;;5009346;28;86545;-73
2023/06/24 01:29:44;;;;;;;84.22;54.78;;;20.00;79.10;;;;;;5004414;28;84607;-73
2023/06/24 01:32:13;;;;;;;85.05;54.15;;;20.00;79.30;;;;;;4989647;28;84763;-73
2023/06/24 01:34:57;;;;;;;84.60;54.78;;;20.00;79.60;;;;;;4994472;28;85062;-73
2023/06/24 01:37:36;;;;;;;84.55;54.75;;;20.00;79.20;;;;;;5000142;28;87357;-73
2023/06/24 01:40:10;;;;;;;84.28;54.63;;;20.00;79.30;;;;;;5006729;28;84999;-73
2023/06/24 01:42:41;;;;;;;86.15;54.60;;;19.90;79.30;;;;;;5001768;28;86186;-73
2023/06/24 01:45:12;;;;;;;85.32;55.15;;;19.90;79.70;;;;;;4997416;28;85094;-73
2023/06/24 01:47:40;;;;;;;84.75;54.75;;;19.90;79.50;;;;;;5000439;28;84720;-73
2023/06/24 01:50:09;;;;;;;84.88;54.47;;;19.90;79.90;;;;;;4992190;28;85070;-72
2023/06/24 01:52:36;;;;;;;86.18;55.17;;;19.90;79.80;;;;;;4983810;28;85316;-73
2023/06/24 01:55:06;;;;;;;84.43;54.78;;;19.90;80.20;;;;;;4995474;28;85356;-73
2023/06/24 01:57:34;;;;;;;84.27;54.87;;;19.80;80.00;;;;;;4993104;28;84869;-75
2023/06/24 02:00:02;;;;;;;85.72;55.25;;;19.80;80.30;;;;;;4997652;28;85378;-73
2023/06/24 02:02:29;;;;;;;86.50;54.88;;;19.80;80.30;;;;;;4992930;28;86208;-73
2023/06/24 02:04:56;;;;;;;84.43;54.88;;;19.80;80.40;;;;;;4990190;28;86393;-73
2023/06/24 02:07:23;;;;;;;84.30;55.13;;;19.80;80.30;;;;;;4986187;28;84930;-73
2023/06/24 02:09:51;;;;;;;84.32;54.72;;;19.80;80.20;;;;;;4998685;28;85310;-72
2023/06/24 02:12:17;;;;;;;84.13;54.53;;;19.70;80.30;;;;;;4987981;28;85807;-73
2023/06/24 02:14:43;;;;;;;84.95;55.08;;;19.80;80.80;;;;;;4990266;28;84737;-73
2023/06/24 02:17:12;;;;;;;84.40;55.33;;;19.80;80.50;;;;;;4990913;28;89688;-73
2023/06/24 02:19:38;;;;;;;84.93;54.92;;;19.70;80.60;;;;;;4981891;28;85889;-73
2023/06/24 02:22:09;;;;;;;84.75;55.22;;;19.70;80.70;;;;;;4991845;28;85364;-73
2023/06/24 02:24:36;;;;;;;84.47;54.95;;;19.70;80.50;;;;;;4997865;28;85238;-73
2023/06/24 02:27:03;;;;;;;85.35;55.25;;;19.70;80.80;;;;;;4993233;28;85004;-73
2023/06/24 02:29:30;;;;;;;84.70;54.92;;;19.70;81.10;;;;;;4995981;28;87906;-73
2023/06/24 02:31:56;;;;;;;84.63;55.30;;;19.70;80.90;;;;;;4995901;28;85626;-73
2023/06/24 02:34:24;;;;;;;83.95;54.90;;;19.70;80.60;;;;;;4993417;28;85828;-73
2023/06/24 02:36:49;;;;;;;85.15;54.88;;;19.70;81.00;;;;;;4988782;28;84830;-72
2023/06/24 02:39:15;;;;;;;85.43;55.05;;;19.60;80.80;;;;;;4988470;28;84777;-73
2023/06/24 02:41:41;;;;;;;84.25;54.78;;;19.60;81.10;;;;;;4995879;28;85130;-73
2023/06/24 02:44:07;;;;;;;84.93;54.63;;;19.60;80.80;;;;;;4995619;28;84941;-72
2023/06/24 02:46:35;;;;;;;84.05;54.58;;;19.60;81.30;;;;;;4999639;28;84390;-73
2023/06/24 02:49:01;;;;;;;84.32;54.92;;;19.60;81.20;;;;;;4992282;28;84993;-73
2023/06/24 02:51:27;;;;;;;84.13;54.88;;;19.50;81.20;;;;;;4995280;28;87669;-72
2023/06/24 02:53:54;;;;;;;85.25;55.13;;;19.60;81.50;;;;;;5000077;28;84803;-73
2023/06/24 02:56:20;;;;;;;84.47;55.05;;;19.50;80.90;;;;;;4998644;28;85630;-73
2023/06/24 02:58:47;;;;;;;85.65;54.80;;;19.50;80.60;;;;;;4993189;28;86166;-72
2023/06/24 03:01:13;;;;;;;84.00;55.08;;;19.50;81.70;;;;;;4994506;28;85513;-74
2023/06/24 03:03:41;;;;;;;84.15;54.75;;;19.50;81.20;;;;;;5000192;28;85231;-73
2023/06/24 03:06:07;;;;;;;85.03;55.05;;;19.40;81.50;;;;;;4994715;28;87476;-74
2023/06/24 03:08:33;;;;;;;84.00;54.78;;;19.40;81.30;;;;;;4995102;28;89180;-73
2023/06/24 03:10:58;;;;;;;85.18;55.15;;;19.40;82.10;;;;;;4994745;28;86338;-73
2023/06/24 03:13:25;;;;;;;85.45;55.47;;;19.40;82.00;;;;;;4997546;28;84594;-73
2023/06/24 03:15:51;;;;;;;84.47;54.92;;;19.30;81.70;;;;;;5003302;28;84596;-73
2023/06/24 03:18:17;;;;;;;84.65;55.55;;;19.40;81.80;;;;;;4997672;28;85044;-74
2023/06/24 03:20:43;;;;;;;84.15;54.92;;;19.40;81.30;;;;;;5007142;28;86471;-73
2023/06/24 03:23:09;;;;;;;84.88;54.85;;;19.30;82.50;;;;;;5002584;28;85700;-72
2023/06/24 03:25:35;;;;;;;84.80;54.85;;;19.30;82.10;;;;;;5007801;28;84333;-73
2023/06/24 03:28:03;;;;;;;84.15;54.95;;;19.30;82.70;;;;;;5009362;28;85659;-73
2023/06/24 03:30:29;;;;;;;84.25;55.08;;;19.30;82.10;;;;;;4999466;28;84825;-75
2023/06/24 03:32:55;;;;;;;84.63;55.28;;;19.30;82.00;;;;;;5002989;28;85425;-72
2023/06/24 03:35:22;;;;;;;83.70;54.50;;;19.20;82.60;;;;;;5003199;28;86029;-72
2023/06/24 03:37:48;;;;;;;84.80;54.85;;;19.20;82.50;;;;;;5013643;28;86877;-73
2023/06/24 03:40:14;;;;;;;85.07;55.10;;;19.20;82.60;;;;;;5009029;28;85002;-73
2023/06/24 03:42:39;;;;;;;84.30;54.70;;;19.20;82.00;;;;;;4999521;28;85323;-73
2023/06/24 03:45:05;;;;;;;84.70;55.20;;;19.20;82.60;;;;;;5013396;28;84708;-72
2023/06/24 03:47:37;;;;;;;84.57;55.22;;;19.20;82.50;;;;;;5006657;28;86246;-74
2023/06/24 03:50:03;;;;;;;91.38;55.47;;;19.20;83.00;;;;;;5004969;28;87017;-72
2023/06/24 03:52:28;;;;;;;84.93;55.58;;;19.20;81.90;;;;;;5004139;28;86419;-74
2023/06/24 03:54:54;;;;;;;84.95;54.78;;;19.20;82.50;;;;;;4997281;28;84688;-73
2023/06/24 03:57:20;;;;;;;84.07;55.03;;;19.20;83.10;;;;;;4995364;28;84392;-73
2023/06/24 03:59:46;;;;;;;84.10;55.08;;;19.20;82.50;;;;;;4994995;28;85460;-73
2023/06/24 04:02:13;;;;;;;83.93;54.78;;;19.30;82.90;;;;;;5003608;28;86028;-73
2023/06/24 04:04:39;;;;;;;84.05;55.22;;;19.20;82.50;;;;;;5009016;28;84514;-74
2023/06/24 04:07:07;;;;;;;83.93;55.03;;;19.20;81.60;;;;;;4998706;28;85035;-73
2023/06/24 04:09:34;;;;;;;84.05;55.15;;;19.20;83.70;;;;;;5003839;28;87541;-73
2023/06/24 04:12:00;;;;;;;84.95;55.25;;;19.30;82.10;;;;;;5010588;28;84696;-74
2023/06/24 04:14:26;;;;;;;84.63;54.90;;;19.30;83.10;;;;;;5000703;28;86289;-72
2023/06/24 04:16:51;;;;;;;84.95;55.55;;;19.20;82.50;;;;;;5004585;28;84368;-74
2023/06/24 04:19:17;;;;;;;83.93;54.90;;;19.20;83.40;;;;;;5003057;28;85090;-73
2023/06/24 04:21:43;;;;;;;84.22;54.92;;;19.20;83.20;;;;;;5003629;28;85045;-73
2023/06/24 04:24:08;;;;;;;85.70;55.33;;;19.20;82.70;;;;;;5008772;28;85110;-73
2023/06/24 04:26:34;;;;;;;84.13;54.78;;;19.20;82.60;;;;;;5010241;28;84239;-73
2023/06/24 04:28:59;;;;;;;85.22;55.22;;;19.20;83.00;;;;;;5001377;28;85787;-73
2023/06/24 04:31:25;;;;;;;84.57;55.15;;;19.20;82.30;;;;;;5001605;28;84836;-73
2023/06/24 04:33:51;;;;;;;84.63;55.30;;;19.20;82.40;;;;;;5000137;28;86247;-73
2023/06/24 04:36:17;;;;;;;84.65;55.30;;;19.20;82.40;;;;;;5006094;28;84655;-73
2023/06/24 04:38:42;;;;;;;83.97;54.58;;;19.30;82.10;;;;;;5011788;28;86586;-73
2023/06/24 04:41:08;;;;;;;84.35;55.20;;;19.40;83.60;;;;;;5004050;28;86195;-74
2023/06/24 04:43:35;;;;;;;85.53;54.97;;;19.40;82.30;;;;;;5000617;28;86145;-74
2023/06/24 04:46:01;;;;;;;85.05;55.38;;;19.40;82.20;;;;;;5005316;28;85441;-74
2023/06/24 04:48:27;;;;;;;84.35;55.35;;;19.50;82.50;;;;;;5002571;28;86119;-73
2023/06/24 04:50:54;;;;;;;85.47;55.15;;;19.50;81.50;;;;;;5005046;28;85724;-73
2023/06/24 04:53:20;;;;;;;84.55;55.60;;;19.50;81.70;;;;;;5000137;28;84674;-74
2023/06/24 04:55:46;;;;;;;84.20;55.33;;;19.60;81.40;;;;;;5004824;28;84820;-73
2023/06/24 04:58:12;;;;;;;85.65;55.17;;;19.60;81.70;;;;;;5007861;28;84705;-73
2023/06/24 05:00:37;;;;;;;83.95;54.90;;;19.70;81.50;;;;;;5003664;28;84965;-73
2023/06/24 05:03:03;;;;;;;86.07;55.78;;;19.70;81.40;;;;;;5003118;28;86544;-73
2023/06/24 05:05:28;;;;;;;85.03;55.42;;;19.60;81.00;;;;;;5002318;28;85198;-75
2023/06/24 05:07:54;;;;;;;85.82;55.90;;;19.70;80.90;;;;;;5002113;28;87242;-73
2023/06/24 05:10:19;;;;;;;84.93;55.40;;;19.70;81.10;;;;;;5013326;28;84715;-73
2023/06/24 05:12:45;;;;;;;84.65;55.75;;;19.70;80.90;;;;;;5005633;28;85233;-74
2023/06/24 05:15:11;;;;;;;85.22;55.47;;;19.70;80.40;;;;;;5000718;28;84977;-73
2023/06/24 05:17:36;;;;;;;85.55;55.70;;;19.70;80.30;;;;;;4996874;28;88552;-74
2023/06/24 05:20:03;;;;;;;85.78;56.28;;;19.70;79.90;;;;;;5004562;22;86000;-47
2023/06/24 05:22:29;;;;;;;84.70;55.55;;;19.70;79.80;;;;;;4975441;28;85124;-45
2023/06/24 05:24:54;;;;;;;86.22;56.25;;;19.60;80.70;;;;;;4974383;28;86377;-45
2023/06/24 05:27:20;;;;;;;85.97;55.75;;;19.70;79.30;;;;;;4977800;28;87301;-45
2023/06/24 05:29:46;;;;;;;85.35;56.13;;;19.70;79.00;;;;;;4975789;28;85242;-47
2023/06/24 05:32:12;;;;;;;85.03;55.92;;;19.70;80.00;;;;;;4975243;28;85309;-46
2023/06/24 05:34:37;;;;;;;86.07;56.45;;;19.70;79.40;;;;;;4970982;28;85187;-47
2023/06/24 05:37:03;;;;;;;84.85;55.13;;;19.70;79.00;;;;;;4976321;28;85227;-45
2023/06/24 05:39:29;;;;;;;84.80;55.47;;;19.80;80.40;;;;;;4974939;28;85008;-45
2023/06/24 05:41:55;;;;;;;85.32;55.63;;;19.80;79.20;;;;;;4974100;28;85417;-44
2023/06/24 05:44:22;;;;;;;85.05;55.85;;;19.80;79.50;;;;;;4976066;28;84902;-47
2023/06/24 05:46:48;;;;;;;84.70;55.50;;;19.80;78.70;;;;;;4980173;28;85857;-45
2023/06/24 05:49:13;;;;;;;84.95;55.78;;;19.90;78.20;;;;;;4979132;28;84745;-44
2023/06/24 05:51:39;;;;;;;85.63;55.42;;;19.90;79.60;;;;;;4972207;28;88163;-47
2023/06/24 05:54:05;;;;;;;86.28;55.85;;;20.00;78.80;;;;;;4976884;28;85166;-45
2023/06/24 05:56:31;;;;;;;84.57;55.25;;;20.00;78.90;;;;;;4975990;28;85354;-46
2023/06/24 05:58:56;;;;;;;84.55;55.75;;;20.00;79.30;;;;;;4975656;28;85679;-44
2023/06/24 06:01:22;;;;;;;84.72;55.95;;;20.00;77.50;;;;;;4974816;28;87083;-45
2023/06/24 06:03:47;;;;;;;85.65;55.75;;;20.00;77.60;;;;;;4977679;28;85010;-45
2023/06/24 06:06:13;;;;;;;85.70;56.10;;;20.00;78.70;;;;;;4974747;28;84985;-45
2023/06/24 06:08:39;;;;;;;86.15;55.92;;;20.00;76.60;;;;;;4973288;28;85105;-45
2023/06/24 06:11:04;;;;;;;83.78;54.95;;;20.10;77.50;;;;;;4976575;28;85307;-46
2023/06/24 06:13:30;;;;;;;85.35;55.90;;;20.10;78.70;;;;;;4993194;28;85121;-44
2023/06/24 06:15:56;;;;;;;84.15;55.22;;;20.10;77.20;;;;;;4972195;28;85097;-48
2023/06/24 06:18:22;;;;;;;84.20;55.28;;;20.20;78.30;;;;;;4971223;28;86170;-46
2023/06/24 06:20:48;;;;;;;85.07;55.17;;;20.10;78.50;;;;;;4979502;28;85191;-48
2023/06/24 06:23:14;;;;;;;85.38;55.50;;;20.20;78.40;;;;;;4974751;28;85075;-48
2023/06/24 06:25:40;;;;;;;85.10;55.70;;;20.20;77.00;;;;;;4976668;28;85565;-47
2023/06/24 06:28:05;;;;;;;86.53;57.25;;;20.20;76.70;;;;;;4977219;28;86178;-45
2023/06/24 06:30:31;;;;;;;86.35;56.15;;;20.20;76.50;;;;;;4972074;28;87254;-45
2023/06/24 06:32:57;;;;;;;85.82;56.00;;;20.20;77.20;;;;;;4970298;28;85689;-46
2023/06/24 06:35:22;;;;;;;84.15;55.00;;;20.30;77.50;;;;;;4971523;28;91385;-46
2023/06/24 06:37:52;;;;;;;87.07;54.92;;;20.40;76.70;;;;;;4978130;28;85836;-45
2023/06/24 06:40:19;;;;;;;85.78;56.00;;;20.50;76.90;;;;;;4973959;28;86573;-47
2023/06/24 06:42:44;;;;;;;85.35;54.88;;;20.40;76.80;;;;;;4968415;28;84897;-47
2023/06/24 06:45:10;;;;;;;86.65;55.72;;;20.50;78.30;;;;;;4971139;28;86770;-45
2023/06/24 06:47:36;;;;;;;83.85;54.90;;;20.60;76.60;;;;;;4975693;28;86272;-46
2023/06/24 06:50:02;;;;;;;86.95;56.00;;;20.60;78.00;;;;;;4970369;28;85054;-45
2023/06/24 06:52:28;;;;;;;85.97;56.40;;;20.50;75.90;;;;;;4973666;28;85119;-46
2023/06/24 06:54:54;;;;;;;85.93;56.42;;;20.50;76.60;;;;;;4971092;28;86782;-46
2023/06/24 06:57:19;;;;;;;86.10;56.17;;;20.40;75.90;;;;;;4976117;28;85415;-49
2023/06/24 06:59:45;;;;;;;87.88;56.38;;;20.40;75.80;;;;;;4969302;28;86970;-46
2023/06/24 07:02:11;;;;;;;88.25;56.80;;;20.50;75.50;;;;;;4975166;28;85141;-49
2023/06/24 07:04:36;;;;;;;91.80;57.17;;;20.40;75.60;;;;;;4976791;28;85199;-45
2023/06/24 07:07:02;;;;;;;87.38;56.95;;;20.40;75.80;;;;;;4974603;28;86608;-48
2023/06/24 07:09:28;;;;;;;87.97;56.55;;;20.50;74.80;;;;;;4974953;28;85378;-51
2023/06/24 07:11:53;;;;;;;85.75;56.08;;;20.50;75.00;;;;;;4977545;28;85081;-48
2023/06/24 07:14:19;;;;;;;85.65;56.35;;;20.50;75.00;;;;;;4971207;28;85069;-49
2023/06/24 07:16:44;;;;;;;86.60;56.13;;;20.60;75.00;;;;;;4979847;28;85249;-49
2023/06/24 07:19:10;;;;;;;86.20;56.20;;;20.60;75.40;;;;;;4972022;28;86102;-50
2023/06/24 07:21:37;;;;;;;89.57;56.42;;;20.60;75.10;;;;;;4969808;28;84823;-49
2023/06/24 07:24:03;;;;;;;86.90;56.38;;;20.70;75.10;;;;;;4975184;28;85426;-48
2023/06/24 07:26:29;;;;;;;88.97;56.58;;;20.70;75.10;;;;;;4971466;28;90137;-46
2023/06/24 07:28:59;;;;;;;86.50;55.92;;;20.70;75.30;;;;;;4973423;28;86402;-45
2023/06/24 07:31:24;;;;;;;86.05;56.22;;;20.70;74.90;;;;;;4974326;28;86501;-49
2023/06/24 07:33:50;;;;;;;88.45;56.65;;;20.70;75.20;;;;;;4969104;28;88024;-50
2023/06/24 07:36:16;;;;;;;88.60;56.42;;;20.80;75.40;;;;;;4972556;28;86026;-48
2023/06/24 07:38:41;;;;;;;87.70;55.88;;;20.80;75.30;;;;;;4973240;28;87410;-47
2023/06/24 07:41:07;;;;;;;85.35;55.15;;;20.80;74.80;;;;;;4970876;28;88232;-46
2023/06/24 07:43:33;;;;;;;86.32;55.75;;;20.80;74.60;;;;;;4966896;28;85155;-48
2023/06/24 07:45:58;;;;;;;87.75;55.88;;;20.80;75.30;;;;;;4982268;22;85501;-75
2023/06/24 07:48:24;;;;;;;87.03;55.67;;;20.90;75.00;;;;;;4981116;28;86424;-75
2023/06/24 07:50:49;;;;;;;88.70;55.42;;;20.90;74.60;;;;;;4986130;28;85695;-77
2023/06/24 07:53:15;;;;;;;85.75;55.30;;;20.90;74.60;;;;;;4978495;28;89523;-76
2023/06/24 07:55:41;;;;;;;87.55;55.70;;;21.00;74.50;;;;;;4978722;28;85056;-74
2023/06/24 07:58:06;;;;;;;85.65;55.65;;;21.00;74.30;;;;;;4977049;28;86041;-72
2023/06/24 08:00:32;;;;;;;86.60;55.38;;;21.00;74.10;;;;;;4974827;28;85827;-74
2023/06/24 08:02:58;;;;;;;85.95;55.83;;;21.00;72.80;;;;;;4970247;28;85197;-74
2023/06/24 08:05:24;;;;;;;85.80;55.35;;;21.20;70.00;;;;;;4970619;28;86241;-74
2023/06/24 08:07:51;;;;;;;86.75;55.80;;;21.20;70.30;;;;;;4962638;28;86452;-74
2023/06/24 08:10:16;;;;;;;85.40;55.50;;;21.20;69.40;;;;;;4962890;28;85259;-74
2023/06/24 08:12:42;;;;;;;86.25;55.55;;;21.20;68.70;;;;;;4962830;28;86428;-73
2023/06/24 08:15:08;;;;;;;86.03;55.22;;;21.30;69.80;;;;;;4963939;28;86492;-73
2023/06/24 08:17:34;;;;;;;86.25;55.97;;;21.50;69.60;;;;;;4953003;28;88698;-74
2023/06/24 08:20:00;;;;;;;87.40;55.55;;;21.50;68.90;;;;;;4965760;28;88154;-72
2023/06/24 08:22:25;;;;;;;87.68;56.17;;;21.40;68.80;;;;;;4964694;28;86960;-74
2023/06/24 08:24:51;;;;;;;87.57;55.85;;;21.60;70.30;;;;;;4970281;28;86897;-71
2023/06/24 08:27:16;;;;;;;87.20;55.78;;;21.70;68.30;;;;;;4951553;28;87606;-71
2023/06/24 08:29:42;;;;;;;86.75;55.28;;;21.70;66.80;;;;;;4957812;28;85713;-73
2023/06/24 08:32:08;;;;;;;86.80;55.83;;;21.60;66.70;;;;;;4950050;28;92681;-74
2023/06/24 08:34:33;;;;;;;86.53;55.08;;;21.70;66.80;;;;;;4951261;28;86883;-73
2023/06/24 08:36:59;;;;;;;87.93;55.90;;;21.70;67.10;;;;;;4963982;28;87529;-74
2023/06/24 08:39:25;;;;;;;86.50;55.42;;;21.70;66.90;;;;;;4964578;28;85919;-74
2023/06/24 08:41:51;;;;;;;86.75;55.75;;;21.80;67.70;;;;;;4966228;28;85735;-73
2023/06/24 08:44:17;;;;;;;88.72;55.80;;;21.90;66.00;;;;;;4965267;28;89391;-72
2023/06/24 08:46:43;;;;;;;87.18;55.88;;;21.80;66.70;;;;;;4958559;28;86548;-73
2023/06/24 08:49:23;;;;;;;87.28;55.75;;;21.90;65.90;;;;;;4964085;28;90185;-74
2023/06/24 08:51:55;;;;;;;86.10;56.08;;;21.90;66.50;;;;;;4968793;28;86064;-73
2023/06/24 08:54:22;;;;;;;87.20;55.58;;;21.90;66.00;;;;;;4967600;28;86076;-72
2023/06/24 08:56:48;;;;;;;87.82;55.70;;;22.00;67.00;;;;;;4973451;28;85275;-74
2023/06/24 08:59:19;;;;;;;86.40;55.45;;;22.10;66.20;;;;;;4968411;28;85363;-72
2023/06/24 09:01:45;;;;;;;90.78;56.00;;;22.10;65.80;;;;;;4967801;28;88306;-74
2023/06/24 09:04:11;;;;;;;89.00;56.15;;;22.20;66.30;;;;;;4963239;28;85733;-73
2023/06/24 09:06:37;;;;;;;89.95;55.92;;;22.30;66.70;;;;;;4970609;28;85864;-74
2023/06/24 09:09:02;;;;;;;86.95;55.88;;;22.30;66.20;;;;;;4962204;28;89759;-73
2023/06/24 09:11:28;;;;;;;87.13;55.55;;;22.30;64.40;;;;;;4966078;28;87002;-73
2023/06/24 09:13:58;;;;;;;86.53;55.47;;;22.30;64.00;;;;;;4973117;28;85983;-74
2023/06/24 09:16:24;;;;;;;88.40;55.58;;;22.30;63.10;;;;;;4965447;28;87577;-74
2023/06/24 09:18:51;;;;;;;87.43;55.72;;;22.40;63.60;;;;;;4972289;28;86374;-74
2023/06/24 09:21:28;;;;;;;87.20;55.72;;;22.40;64.10;;;;;;4964910;28;87003;-74
2023/06/24 09:23:55;;;;;;;87.80;55.80;;;22.40;63.40;;;;;;4974168;28;86441;-72
2023/06/24 09:26:27;;;;;;;86.57;55.72;;;22.50;63.60;;;;;;4966106;28;85728;-73
2023/06/24 09:28:54;;;;;;;85.68;55.15;;;22.60;64.00;;;;;;4963330;28;86331;-74
2023/06/24 09:31:19;;;;;;;89.22;56.08;;;22.60;61.80;;;;;;4967645;28;86713;-74
2023/06/24 09:33:46;;;;;;;87.38;55.78;;;22.60;61.50;;;;;;4968454;28;86968;-74
2023/06/24 09:36:13;;;;;;;89.85;55.72;;;22.70;62.20;;;;;;4970676;28;88519;-72
2023/06/24 09:38:44;;;;;;;86.75;55.40;;;22.70;62.60;;;;;;4973969;28;85759;-73
2023/06/24 09:41:10;;;;;;;88.78;56.00;;;22.70;60.30;;;;;;4961421;28;89833;-74
2023/06/24 09:43:39;;;;;;;86.55;55.65;;;22.70;61.30;;;;;;4967108;28;85754;-74
2023/06/24 09:46:05;;;;;;;86.65;55.83;;;22.70;61.10;;;;;;4963614;28;88767;-73
2023/06/24 09:48:30;;;;;;;87.13;55.83;;;22.80;60.80;;;;;;4965573;28;86494;-73
2023/06/24 09:51:01;;;;;;;86.88;55.88;;;22.80;61.00;;;;;;4960988;28;86336;-72
2023/06/24 09:53:33;;;;;;;87.75;55.72;;;22.80;61.40;;;;;;4967704;28;88610;-74
2023/06/24 09:56:07;;;;;;;86.55;55.50;;;22.80;62.40;;;;;;4963715;28;85070;-74
2023/06/24 09:58:36;;;;;;;89.22;56.33;;;22.90;61.90;;;;;;4964305;28;86474;-75
2023/06/24 10:01:04;;;;;;;88.00;55.78;;;22.90;62.30;;;;;;4979142;28;87091;-75
2023/06/24 10:03:33;;;;;;;87.18;55.67;;;23.00;61.40;;;;;;4968631;28;85173;-75
2023/06/24 10:06:00;;;;;;;87.20;55.53;;;23.00;62.00;;;;;;4989867;28;86730;-72
2023/06/24 10:08:27;;;;;;;87.82;56.00;;;23.10;60.40;;;;;;4962017;28;88288;-73
2023/06/24 10:10:52;;;;;;;87.40;55.72;;;23.10;61.50;;;;;;4962764;28;85113;-71
2023/06/24 10:13:18;;;;;;;87.15;56.08;;;23.10;59.40;;;;;;4966521;28;86175;-71
2023/06/24 10:15:45;;;;;;;87.82;55.78;;;23.10;59.10;;;;;;4964914;28;88513;-71
2023/06/24 10:18:34;;;;;;;87.50;56.00;;;23.10;60.40;;;;;;4970975;28;85824;-72
2023/06/24 10:21:00;;;;;;;90.00;55.75;;;23.20;59.20;;;;;;4961748;28;85832;-73
2023/06/24 10:23:33;;;;;;;87.38;55.80;;;23.20;59.80;;;;;;4963548;28;88219;-72
2023/06/24 10:25:59;;;;;;;88.97;55.67;;;23.20;59.80;;;;;;4968975;28;87355;-72
2023/06/24 10:28:25;;;;;;;87.65;55.97;;;23.30;61.00;;;;;;4956546;28;90528;-73
2023/06/24 10:30:56;;;;;;;87.93;56.15;;;23.40;59.90;;;;;;4976209;28;89824;-72
2023/06/24 10:33:23;;;;;;;88.07;56.30;;;23.40;58.00;;;;;;4964000;28;87019;-72
2023/06/24 10:35:50;;;;;;;87.32;55.67;;;23.40;58.10;;;;;;4971829;28;85814;-75
2023/06/24 10:38:16;;;;;;;88.90;56.22;;;23.40;58.60;;;;;;4961324;28;86915;-70
2023/06/24 10:40:43;;;;;;;90.05;56.47;;;23.50;61.50;;;;;;4959972;28;85810;-71
2023/06/24 10:43:25;;;;;;;89.70;56.28;;;23.60;58.70;;;;;;4971361;28;85409;-72
2023/06/24 10:45:56;;;;;;;89.97;56.20;;;23.60;59.40;;;;;;4962202;28;86308;-71
2023/06/24 10:48:22;;;;;;;89.57;55.90;;;23.70;58.30;;;;;;4971536;28;87477;-70
2023/06/24 10:50:49;;;;;;;88.57;56.05;;;23.70;57.30;;;;;;4976479;28;85675;-71
2023/06/24 10:53:15;;;;;;;91.78;55.65;;;23.70;55.40;;;;;;4965528;28;86156;-71
2023/06/24 10:55:43;;;;;;;100.03;56.97;;;23.80;50.90;;;;;;4972416;28;85758;-71
2023/06/24 10:58:14;;;;;;;91.28;55.90;;;23.80;53.50;;;;;;4962480;28;87183;-70
2023/06/24 11:00:40;;;;;;;87.43;55.60;;;23.80;54.40;;;;;;4982722;28;86032;-70
2023/06/24 11:03:14;;;;;;;88.93;55.67;;;23.80;54.20;;;;;;4970850;28;85196;-72
2023/06/24 11:05:41;;;;;;;88.75;55.75;;;23.80;55.70;;;;;;4972613;28;87421;-71
2023/06/24 11:08:08;;;;;;;87.38;55.80;;;23.90;55.60;;;;;;4966724;28;88093;-71
2023/06/24 11:10:33;;;;;;;88.55;56.05;;;23.90;55.90;;;;;;4967962;28;85417;-72
2023/06/24 11:13:05;;;;;;;88.72;56.00;;;24.00;56.70;;;;;;4979710;28;87829;-71
2023/06/24 11:15:32;;;;;;;89.55;56.50;;;24.00;58.20;;;;;;4963253;28;86175;-71
2023/06/24 11:17:58;;;;;;;91.55;56.47;;;24.10;56.90;;;;;;4952031;28;86402;-71
2023/06/24 11:20:23;;;;;;;90.93;56.55;;;24.10;57.90;;;;;;4967673;28;85783;-75
2023/06/24 11:22:49;;;;;;;88.32;55.85;;;24.10;56.60;;;;;;4964665;28;88920;-72
2023/06/24 11:25:18;;;;;;;88.55;55.53;;;24.10;51.50;;;;;;4961274;28;88859;-72
2023/06/24 11:27:43;;;;;;;87.88;55.72;;;24.20;49.40;;;;;;4965409;28;86225;-72
2023/06/24 11:30:10;;;;;;;88.07;55.35;;;24.20;49.60;;;;;;4981393;28;85756;-71
2023/06/24 11:32:40;;;;;;;91.55;56.10;;;24.20;47.40;;;;;;4964140;28;85293;-73
2023/06/24 11:35:08;;;;;;;90.60;55.90;;;24.20;51.90;;;;;;4957640;28;85600;-73
2023/06/24 11:37:34;;;;;;;91.72;56.08;;;24.30;55.60;;;;;;4975431;28;85053;-74
2023/06/24 11:40:04;;;;;;;92.32;56.72;;;24.30;56.80;;;;;;4965291;28;89966;-75
2023/06/24 11:42:30;;;;;;;92.75;56.55;;;24.30;55.50;;;;;;4978572;28;84686;-75
2023/06/24 11:45:01;;;;;;;90.85;56.13;;;24.30;57.80;;;;;;4969615;28;85904;-77
2023/06/24 11:47:26;;;;;;;91.30;56.13;;;24.30;56.30;;;;;;4974693;28;89226;-75
2023/06/24 11:49:55;;;;;;;90.90;56.45;;;24.30;55.80;;;;;;4970613;28;87525;-76
2023/06/24 11:52:36;;;;;;;90.20;56.25;;;24.30;56.30;;;;;;4969095;28;85418;-75
2023/06/24 11:55:02;;;;;;;91.13;55.90;;;24.40;58.70;;;;;;4988310;28;84559;-75
2023/06/24 11:57:48;;;;;;;90.20;56.22;;;24.40;58.30;;;;;;4979329;28;87790;-75
2023/06/24 12:00:14;;;;;;;90.20;55.95;;;24.40;59.50;;;;;;4992537;28;85516;-74
2023/06/24 12:02:40;;;;;;;91.15;56.10;;;24.40;57.10;;;;;;4971569;28;86113;-75
2023/06/24 12:05:06;;;;;;;89.72;56.42;;;24.40;59.30;;;;;;4967252;28;85412;-75
2023/06/24 12:07:31;;;;;;;91.72;56.63;;;24.40;58.80;;;;;;4970687;28;87305;-73
2023/06/24 12:09:57;;;;;;;91.35;56.60;;;24.50;60.40;;;;;;4977410;28;86180;-74
2023/06/24 12:12:22;;;;;;;93.47;56.55;;;24.50;59.70;;;;;;4972262;28;85783;-74
2023/06/24 12:14:48;;;;;;;89.65;56.72;;;24.50;59.80;;;;;;4977802;28;84776;-74
2023/06/24 12:17:13;;;;;;;94.03;56.63;;;24.50;60.60;;;;;;4978915;28;84643;-76
2023/06/24 12:19:39;;;;;;;92.50;56.55;;;24.50;60.90;;;;;;4982169;28;85339;-76
2023/06/24 12:22:05;;;;;;;89.78;56.47;;;24.60;61.80;;;;;;4970139;28;85508;-74
2023/06/24 12:24:30;;;;;;;91.82;56.50;;;24.60;59.50;;;;;;4974329;28;85931;-75
2023/06/24 12:26:56;;;;;;;89.82;56.13;;;24.60;58.20;;;;;;4975427;28;84968;-75